TAF KLWT
KLWT 072330Z 0800/0824 27007KT P6SM BKN045 OVC060 WS020/29040KT FM080400 24011G22KT P6SM SCT090 BKN250 FM081500 23018G29KT P6SM SCT090 BKN250 FM082200 26017G31KT P6SM SCT050 BKN090=
METAR KLWT
WC KLWT
WS KLWT
WV KLWT